Skip to main content.
Our real time weather data display below is updated continuously via our 24/7 live data feed.
 TIME   TEMPERATURE   WINDSPEED   DIRECTION   HUMIDITY   BAROMETER   RAINFALL 
2:55 23.0°C (73.4°F) 7.4 kmh (4.6 mph) W 78% 1016.9hPa (30.03 inHg) 0.0mm (0.00 in.)
1:55 24.0°C (75.2 °F) 3.7 kmh (2.3 mph) W 73% 1016.9hPa (30.03 inHg) 0.0mm (0.00 in.)
0:55 24.0°C (75.2 °F) 1.9 kmh (1.2 mph) W 78% 1016.9hPa (30.03 inHg) 0.0mm (0.00 in.)
23:55 24.0°C (75.2 °F) 1.9 kmh (1.2 mph) S 78% 1016.9hPa (30.03 inHg) 0.0mm (0.00 in.)
22:55 25.0°C (77.0 °F) 1.9 kmh (1.2 mph) S 78% 1016.9hPa (30.03 inHg) 0.0mm (0.00 in.)
21:55 25.0°C (77.0 °F) 3.7 kmh (2.3 mph) SSE 78% 1016.9hPa (30.03 inHg) 0.0mm (0.00 in.)
20:55 26.0°C (78.8 °F) 3.7 kmh (2.3 mph) SSW 73% 1016.9hPa (30.03 inHg) 0.0mm (0.00 in.)
19:55 27.0°C (80.6 °F) 5.6 kmh (3.5 mph) SW 69% 1015.9hPa (30.00 inHg) 0.0mm (0.00 in.)
18:55 28.0°C (82.4 °F) 5.6 kmh (3.5 mph) SSW 61% 1016.9hPa (30.03 inHg) 0.0mm (0.00 in.)
17:55 28.0°C (82.4 °F) 7.4 kmh (4.6 mph) SSE 61% 1016.9hPa (30.03 inHg) 0.0mm (0.00 in.)
16:55 28.0°C (82.4 °F) 7.4 kmh (4.6 mph) S 61% 1016.9hPa (30.03 inHg) 0.0mm (0.00 in.)
15:55 29.0°C (84.2 °F) 13.0 kmh (8.1 mph) NE 54% 1016.9hPa (30.03 inHg) 0.0mm (0.00 in.)
14:55 28.0°C (82.4 °F) 11.1 kmh (6.9 mph) NE 61% 1016.9hPa (30.03 inHg) 0.0mm (0.00 in.)
13:55 28.0°C (82.4 °F) 5.6 kmh (3.5 mph) N 61% 1017.9hPa (30.06 inHg) 0.0mm (0.00 in.)
12:55 28.0°C (82.4 °F) 11.1 kmh (6.9 mph) NE 61% 1017.9hPa (30.06 inHg) 0.0mm (0.00 in.)
11:55 28.0°C (82.4 °F) 11.1 kmh (6.9 mph) NE 61% 1017.9hPa (30.06 inHg) 0.0mm (0.00 in.)
10:55 28.0°C (82.4 °F) 7.4 kmh (4.6 mph) ESE 65% 1017.9hPa (30.06 inHg) 0.0mm (0.00 in.)
9:55 28.0°C (82.4 °F) 5.6 kmh (3.5 mph) N 61% 1017.9hPa (30.06 inHg) 0.0mm (0.00 in.)
8:55 27.0°C (80.6 °F) 3.7 kmh (2.3 mph) NW 69% 1017.9hPa (30.06 inHg) 0.0mm (0.00 in.)
7:55 23.0°C (73.4 °F) 5.6 kmh (3.5 mph) NW 83% 1017.9hPa (30.06 inHg) 0.0mm (0.00 in.)
6:55 22.0°C (71.6 °F) 1.9 kmh (1.2 mph) NNW 83% 1016.9hPa (30.03 inHg) 0.0mm (0.00 in.)
5:55 23.0°C (73.4 °F) 1.9 kmh (1.2 mph) NNW 83% 1016.9hPa (30.03 inHg) 0.0mm (0.00 in.)
4:55 23.0°C (73.4 °F) 1.9 kmh (1.2 mph) ENE 83% 1016.9hPa (30.03 inHg) 0.0mm (0.00 in.)
3:55 23.0°C (73.4 °F) 0.0 kmh (0.0 mph) W 83% 1016.9hPa (30.03 inHg) 0.0mm (0.00 in.)